sensor_id;sensor_type;location;lat;lon;timestamp;temperature;humidity
11848;DHT22;5983;49.966;8.052;2022-11-21T00:00:48;6.20;99.90
11848;DHT22;5983;49.966;8.052;2022-11-21T00:03:17;6.20;99.90
11848;DHT22;5983;49.966;8.052;2022-11-21T00:05:45;6.20;99.90
11848;DHT22;5983;49.966;8.052;2022-11-21T00:08:18;6.20;99.90
11848;DHT22;5983;49.966;8.052;2022-11-21T00:10:47;6.20;99.90
11848;DHT22;5983;49.966;8.052;2022-11-21T00:13:16;6.10;99.90
11848;DHT22;5983;49.966;8.052;2022-11-21T00:15:46;6.10;99.90
11848;DHT22;5983;49.966;8.052;2022-11-21T00:18:14;6.00;99.90
11848;DHT22;5983;49.966;8.052;2022-11-21T00:20:42;6.10;99.90
11848;DHT22;5983;49.966;8.052;2022-11-21T00:23:10;6.00;99.90
11848;DHT22;5983;49.966;8.052;2022-11-21T00:25:38;6.10;99.90
11848;DHT22;5983;49.966;8.052;2022-11-21T00:28:05;6.00;99.90
11848;DHT22;5983;49.966;8.052;2022-11-21T00:30:32;6.10;99.90
11848;DHT22;5983;49.966;8.052;2022-11-21T00:32:59;6.00;99.90
11848;DHT22;5983;49.966;8.052;2022-11-21T00:35:26;6.00;99.90
11848;DHT22;5983;49.966;8.052;2022-11-21T00:37:53;6.00;99.90
11848;DHT22;5983;49.966;8.052;2022-11-21T00:40:20;6.00;99.90
11848;DHT22;5983;49.966;8.052;2022-11-21T00:42:49;5.90;99.90
11848;DHT22;5983;49.966;8.052;2022-11-21T00:45:16;6.00;99.90
11848;DHT22;5983;49.966;8.052;2022-11-21T00:47:43;5.90;99.90
11848;DHT22;5983;49.966;8.052;2022-11-21T00:50:09;5.90;99.90
11848;DHT22;5983;49.966;8.052;2022-11-21T00:52:36;5.90;99.90
11848;DHT22;5983;49.966;8.052;2022-11-21T00:55:04;5.90;99.90
11848;DHT22;5983;49.966;8.052;2022-11-21T00:57:31;6.00;99.90
11848;DHT22;5983;49.966;8.052;2022-11-21T00:59:59;6.00;99.90
11848;DHT22;5983;49.966;8.052;2022-11-21T01:02:26;6.00;99.90
11848;DHT22;5983;49.966;8.052;2022-11-21T01:04:53;6.10;99.90
11848;DHT22;5983;49.966;8.052;2022-11-21T01:07:20;6.10;99.90
11848;DHT22;5983;49.966;8.052;2022-11-21T01:09:46;6.20;99.90
11848;DHT22;5983;49.966;8.052;2022-11-21T01:12:13;6.20;99.90
11848;DHT22;5983;49.966;8.052;2022-11-21T01:14:40;6.30;99.90
11848;DHT22;5983;49.966;8.052;2022-11-21T01:17:08;6.30;99.90
11848;DHT22;5983;49.966;8.052;2022-11-21T01:19:35;6.30;99.90
11848;DHT22;5983;49.966;8.052;2022-11-21T01:22:02;6.30;99.90
11848;DHT22;5983;49.966;8.052;2022-11-21T01:24:29;6.20;99.90
11848;DHT22;5983;49.966;8.052;2022-11-21T01:26:56;6.20;99.90
11848;DHT22;5983;49.966;8.052;2022-11-21T01:29:23;6.30;99.90
11848;DHT22;5983;49.966;8.052;2022-11-21T01:31:50;6.30;99.90
11848;DHT22;5983;49.966;8.052;2022-11-21T01:34:18;6.30;99.90
11848;DHT22;5983;49.966;8.052;2022-11-21T01:36:46;6.20;99.90
11848;DHT22;5983;49.966;8.052;2022-11-21T01:39:13;6.20;99.90
11848;DHT22;5983;49.966;8.052;2022-11-21T01:41:42;6.30;99.90
11848;DHT22;5983;49.966;8.052;2022-11-21T01:44:18;6.30;99.90
11848;DHT22;5983;49.966;8.052;2022-11-21T01:46:47;6.20;99.90
11848;DHT22;5983;49.966;8.052;2022-11-21T01:49:17;6.30;99.90
11848;DHT22;5983;49.966;8.052;2022-11-21T01:51:52;6.20;99.90
11848;DHT22;5983;49.966;8.052;2022-11-21T01:54:27;6.20;99.90
11848;DHT22;5983;49.966;8.052;2022-11-21T01:56:59;6.20;99.90
11848;DHT22;5983;49.966;8.052;2022-11-21T01:59:32;6.20;99.90
11848;DHT22;5983;49.966;8.052;2022-11-21T02:02:05;6.20;99.90
11848;DHT22;5983;49.966;8.052;2022-11-21T02:04:38;6.20;99.90
11848;DHT22;5983;49.966;8.052;2022-11-21T02:07:08;6.20;99.90
11848;DHT22;5983;49.966;8.052;2022-11-21T02:09:38;6.20;99.90
11848;DHT22;5983;49.966;8.052;2022-11-21T02:12:12;6.30;99.90
11848;DHT22;5983;49.966;8.052;2022-11-21T02:14:43;6.30;99.90
11848;DHT22;5983;49.966;8.052;2022-11-21T02:17:10;6.30;99.90
11848;DHT22;5983;49.966;8.052;2022-11-21T02:19:42;6.30;99.90
11848;DHT22;5983;49.966;8.052;2022-11-21T02:22:20;6.30;99.90
11848;DHT22;5983;49.966;8.052;2022-11-21T02:25:07;6.30;99.90
11848;DHT22;5983;49.966;8.052;2022-11-21T02:27:37;6.40;99.90
11848;DHT22;5983;49.966;8.052;2022-11-21T02:30:06;6.40;99.90
11848;DHT22;5983;49.966;8.052;2022-11-21T02:32:36;6.40;99.90
11848;DHT22;5983;49.966;8.052;2022-11-21T02:35:05;6.40;99.90
11848;DHT22;5983;49.966;8.052;2022-11-21T02:37:35;6.50;99.90
11848;DHT22;5983;49.966;8.052;2022-11-21T02:40:07;6.40;99.90
11848;DHT22;5983;49.966;8.052;2022-11-21T02:42:40;6.50;99.90
11848;DHT22;5983;49.966;8.052;2022-11-21T02:45:15;6.40;99.90
11848;DHT22;5983;49.966;8.052;2022-11-21T02:47:48;6.50;99.90
11848;DHT22;5983;49.966;8.052;2022-11-21T02:50:24;6.40;99.90
11848;DHT22;5983;49.966;8.052;2022-11-21T02:52:53;6.40;99.90
11848;DHT22;5983;49.966;8.052;2022-11-21T02:55:23;6.40;99.90
11848;DHT22;5983;49.966;8.052;2022-11-21T02:57:51;6.40;99.90
11848;DHT22;5983;49.966;8.052;2022-11-21T03:00:19;6.40;99.90
11848;DHT22;5983;49.966;8.052;2022-11-21T03:02:47;6.40;99.90
11848;DHT22;5983;49.966;8.052;2022-11-21T03:05:15;6.40;99.90
11848;DHT22;5983;49.966;8.052;2022-11-21T03:07:45;6.40;99.90
11848;DHT22;5983;49.966;8.052;2022-11-21T03:10:12;6.30;99.90
11848;DHT22;5983;49.966;8.052;2022-11-21T03:12:42;6.30;99.90
11848;DHT22;5983;49.966;8.052;2022-11-21T03:15:11;6.20;99.90
11848;DHT22;5983;49.966;8.052;2022-11-21T03:17:40;6.20;99.90
11848;DHT22;5983;49.966;8.052;2022-11-21T03:20:08;6.30;99.90
11848;DHT22;5983;49.966;8.052;2022-11-21T03:22:36;6.30;99.90
11848;DHT22;5983;49.966;8.052;2022-11-21T03:25:04;6.30;99.90
11848;DHT22;5983;49.966;8.052;2022-11-21T03:27:31;6.20;99.90
11848;DHT22;5983;49.966;8.052;2022-11-21T03:29:59;6.20;99.90
11848;DHT22;5983;49.966;8.052;2022-11-21T03:32:26;6.20;99.90
11848;DHT22;5983;49.966;8.052;2022-11-21T03:34:53;6.20;99.90
11848;DHT22;5983;49.966;8.052;2022-11-21T03:37:20;6.20;99.90
11848;DHT22;5983;49.966;8.052;2022-11-21T03:39:47;6.10;99.90
11848;DHT22;5983;49.966;8.052;2022-11-21T03:42:13;6.10;99.90
11848;DHT22;5983;49.966;8.052;2022-11-21T03:44:41;6.20;99.90
11848;DHT22;5983;49.966;8.052;2022-11-21T03:47:09;6.20;99.90
11848;DHT22;5983;49.966;8.052;2022-11-21T03:49:36;6.20;99.90
11848;DHT22;5983;49.966;8.052;2022-11-21T03:52:03;6.20;99.90
11848;DHT22;5983;49.966;8.052;2022-11-21T03:54:30;6.10;99.90
11848;DHT22;5983;49.966;8.052;2022-11-21T03:56:57;6.10;99.90
11848;DHT22;5983;49.966;8.052;2022-11-21T03:59:23;6.10;99.90
11848;DHT22;5983;49.966;8.052;2022-11-21T04:01:51;6.10;99.90
11848;DHT22;5983;49.966;8.052;2022-11-21T04:04:19;6.10;99.90
11848;DHT22;5983;49.966;8.052;2022-11-21T04:06:46;6.10;99.90
11848;DHT22;5983;49.966;8.052;2022-11-21T04:09:13;6.10;99.90
11848;DHT22;5983;49.966;8.052;2022-11-21T04:11:40;6.10;99.90
11848;DHT22;5983;49.966;8.052;2022-11-21T04:14:07;6.00;99.90
11848;DHT22;5983;49.966;8.052;2022-11-21T04:16:34;6.00;99.90
11848;DHT22;5983;49.966;8.052;2022-11-21T04:19:01;6.10;99.90
11848;DHT22;5983;49.966;8.052;2022-11-21T04:21:29;6.10;99.90
11848;DHT22;5983;49.966;8.052;2022-11-21T04:23:56;6.10;99.90
11848;DHT22;5983;49.966;8.052;2022-11-21T04:26:23;6.10;99.90
11848;DHT22;5983;49.966;8.052;2022-11-21T04:28:50;6.10;99.90
11848;DHT22;5983;49.966;8.052;2022-11-21T04:31:17;6.10;99.90
11848;DHT22;5983;49.966;8.052;2022-11-21T04:33:44;6.10;99.90
11848;DHT22;5983;49.966;8.052;2022-11-21T04:36:10;6.10;99.90
11848;DHT22;5983;49.966;8.052;2022-11-21T04:38:39;6.10;99.90
11848;DHT22;5983;49.966;8.052;2022-11-21T04:41:06;6.10;99.90
11848;DHT22;5983;49.966;8.052;2022-11-21T04:43:33;6.20;99.90
11848;DHT22;5983;49.966;8.052;2022-11-21T04:45:59;6.10;99.90
11848;DHT22;5983;49.966;8.052;2022-11-21T04:48:26;6.10;99.90
11848;DHT22;5983;49.966;8.052;2022-11-21T04:50:53;6.20;99.90
11848;DHT22;5983;49.966;8.052;2022-11-21T04:53:20;6.20;99.90
11848;DHT22;5983;49.966;8.052;2022-11-21T04:55:48;6.20;99.90
11848;DHT22;5983;49.966;8.052;2022-11-21T04:58:15;6.20;99.90
11848;DHT22;5983;49.966;8.052;2022-11-21T05:00:42;6.30;99.90
11848;DHT22;5983;49.966;8.052;2022-11-21T05:03:09;6.30;99.90
11848;DHT22;5983;49.966;8.052;2022-11-21T05:05:36;6.30;99.90
11848;DHT22;5983;49.966;8.052;2022-11-21T05:08:03;6.30;99.90
11848;DHT22;5983;49.966;8.052;2022-11-21T05:10:30;6.30;99.90
11848;DHT22;5983;49.966;8.052;2022-11-21T05:13:19;6.30;99.90
11848;DHT22;5983;49.966;8.052;2022-11-21T05:15:48;6.30;99.90
11848;DHT22;5983;49.966;8.052;2022-11-21T05:18:21;6.30;99.90
11848;DHT22;5983;49.966;8.052;2022-11-21T05:20:48;6.30;99.90
11848;DHT22;5983;49.966;8.052;2022-11-21T05:23:15;6.30;99.90
11848;DHT22;5983;49.966;8.052;2022-11-21T05:25:42;6.30;99.90
11848;DHT22;5983;49.966;8.052;2022-11-21T05:28:10;6.20;99.90
11848;DHT22;5983;49.966;8.052;2022-11-21T05:30:39;6.20;99.90
11848;DHT22;5983;49.966;8.052;2022-11-21T05:33:06;6.10;99.90
11848;DHT22;5983;49.966;8.052;2022-11-21T05:35:32;6.10;99.90
11848;DHT22;5983;49.966;8.052;2022-11-21T05:37:59;6.10;99.90
11848;DHT22;5983;49.966;8.052;2022-11-21T05:40:26;6.10;99.90
11848;DHT22;5983;49.966;8.052;2022-11-21T05:42:53;6.10;99.90
11848;DHT22;5983;49.966;8.052;2022-11-21T05:45:39;6.10;99.90
11848;DHT22;5983;49.966;8.052;2022-11-21T05:48:06;6.10;99.90
11848;DHT22;5983;49.966;8.052;2022-11-21T05:50:34;6.10;99.90
11848;DHT22;5983;49.966;8.052;2022-11-21T05:53:02;6.20;99.90
11848;DHT22;5983;49.966;8.052;2022-11-21T05:55:30;6.20;99.90
11848;DHT22;5983;49.966;8.052;2022-11-21T05:57:59;6.10;99.90
11848;DHT22;5983;49.966;8.052;2022-11-21T06:00:26;6.20;99.90
11848;DHT22;5983;49.966;8.052;2022-11-21T06:02:55;6.10;99.90
11848;DHT22;5983;49.966;8.052;2022-11-21T06:05:40;6.10;99.90
11848;DHT22;5983;49.966;8.052;2022-11-21T06:08:07;6.10;99.90
11848;DHT22;5983;49.966;8.052;2022-11-21T06:10:34;6.10;99.90
11848;DHT22;5983;49.966;8.052;2022-11-21T06:13:01;6.10;99.90
11848;DHT22;5983;49.966;8.052;2022-11-21T06:15:47;6.10;99.90
11848;DHT22;5983;49.966;8.052;2022-11-21T06:18:16;6.00;99.90
11848;DHT22;5983;49.966;8.052;2022-11-21T06:20:43;6.10;99.90
11848;DHT22;5983;49.966;8.052;2022-11-21T06:23:11;6.10;99.90
11848;DHT22;5983;49.966;8.052;2022-11-21T06:25:38;6.10;99.90
11848;DHT22;5983;49.966;8.052;2022-11-21T06:28:05;6.10;99.90
11848;DHT22;5983;49.966;8.052;2022-11-21T06:30:32;6.10;99.90
11848;DHT22;5983;49.966;8.052;2022-11-21T06:32:59;6.10;99.90
11848;DHT22;5983;49.966;8.052;2022-11-21T06:35:30;6.20;99.90
11848;DHT22;5983;49.966;8.052;2022-11-21T06:37:58;6.20;99.90
11848;DHT22;5983;49.966;8.052;2022-11-21T06:40:25;6.20;99.90
11848;DHT22;5983;49.966;8.052;2022-11-21T06:42:52;6.20;99.90
11848;DHT22;5983;49.966;8.052;2022-11-21T06:45:18;6.20;99.90
11848;DHT22;5983;49.966;8.052;2022-11-21T06:47:45;6.10;99.90
11848;DHT22;5983;49.966;8.052;2022-11-21T06:50:12;6.10;99.90
11848;DHT22;5983;49.966;8.052;2022-11-21T06:52:41;6.20;99.90
11848;DHT22;5983;49.966;8.052;2022-11-21T06:55:09;6.10;99.90
11848;DHT22;5983;49.966;8.052;2022-11-21T06:57:36;6.10;99.90
11848;DHT22;5983;49.966;8.052;2022-11-21T07:00:04;6.10;99.90
11848;DHT22;5983;49.966;8.052;2022-11-21T07:02:32;6.10;99.90
11848;DHT22;5983;49.966;8.052;2022-11-21T07:04:59;6.10;99.90
11848;DHT22;5983;49.966;8.052;2022-11-21T07:07:25;6.10;99.90
11848;DHT22;5983;49.966;8.052;2022-11-21T07:09:54;6.10;99.90
11848;DHT22;5983;49.966;8.052;2022-11-21T07:12:21;6.10;99.90
11848;DHT22;5983;49.966;8.052;2022-11-21T07:15:06;6.00;99.90
11848;DHT22;5983;49.966;8.052;2022-11-21T07:17:33;6.00;99.90
11848;DHT22;5983;49.966;8.052;2022-11-21T07:20:00;6.00;99.90
11848;DHT22;5983;49.966;8.052;2022-11-21T07:22:27;6.00;99.90
11848;DHT22;5983;49.966;8.052;2022-11-21T07:24:55;6.00;99.90
11848;DHT22;5983;49.966;8.052;2022-11-21T07:27:22;6.00;99.90
11848;DHT22;5983;49.966;8.052;2022-11-21T07:29:49;6.10;99.90
11848;DHT22;5983;49.966;8.052;2022-11-21T07:32:16;6.10;99.90
11848;DHT22;5983;49.966;8.052;2022-11-21T07:34:43;6.20;99.90
11848;DHT22;5983;49.966;8.052;2022-11-21T07:37:10;6.30;99.90
11848;DHT22;5983;49.966;8.052;2022-11-21T07:39:37;6.60;99.90
11848;DHT22;5983;49.966;8.052;2022-11-21T07:42:05;6.90;99.90
11848;DHT22;5983;49.966;8.052;2022-11-21T07:44:32;7.30;99.90
11848;DHT22;5983;49.966;8.052;2022-11-21T07:46:59;7.40;99.90
11848;DHT22;5983;49.966;8.052;2022-11-21T07:49:26;7.50;99.90
11848;DHT22;5983;49.966;8.052;2022-11-21T07:51:53;7.50;99.90
11848;DHT22;5983;49.966;8.052;2022-11-21T07:54:20;7.50;99.90
11848;DHT22;5983;49.966;8.052;2022-11-21T07:56:47;7.40;99.90
11848;DHT22;5983;49.966;8.052;2022-11-21T07:59:15;7.30;99.90
11848;DHT22;5983;49.966;8.052;2022-11-21T08:01:43;7.30;99.90
11848;DHT22;5983;49.966;8.052;2022-11-21T08:04:10;7.20;99.90
11848;DHT22;5983;49.966;8.052;2022-11-21T08:06:38;7.20;99.90
11848;DHT22;5983;49.966;8.052;2022-11-21T08:09:04;7.20;99.90
11848;DHT22;5983;49.966;8.052;2022-11-21T08:11:31;7.20;99.90
11848;DHT22;5983;49.966;8.052;2022-11-21T08:14:01;7.20;99.90
11848;DHT22;5983;49.966;8.052;2022-11-21T08:16:30;7.20;99.90
11848;DHT22;5983;49.966;8.052;2022-11-21T08:18:58;7.20;99.90
11848;DHT22;5983;49.966;8.052;2022-11-21T08:21:25;7.20;99.90
11848;DHT22;5983;49.966;8.052;2022-11-21T08:23:53;7.20;99.90
11848;DHT22;5983;49.966;8.052;2022-11-21T08:26:20;7.30;99.90
11848;DHT22;5983;49.966;8.052;2022-11-21T08:28:47;7.30;99.90
11848;DHT22;5983;49.966;8.052;2022-11-21T08:31:14;7.30;99.90
11848;DHT22;5983;49.966;8.052;2022-11-21T08:33:42;7.40;99.90
11848;DHT22;5983;49.966;8.052;2022-11-21T08:36:09;7.40;99.90
11848;DHT22;5983;49.966;8.052;2022-11-21T08:38:36;7.40;99.90
11848;DHT22;5983;49.966;8.052;2022-11-21T08:41:03;7.50;99.90
11848;DHT22;5983;49.966;8.052;2022-11-21T08:43:48;7.60;99.90
11848;DHT22;5983;49.966;8.052;2022-11-21T08:46:15;7.80;99.90
11848;DHT22;5983;49.966;8.052;2022-11-21T08:48:43;8.00;99.90
11848;DHT22;5983;49.966;8.052;2022-11-21T08:51:10;8.10;99.90
11848;DHT22;5983;49.966;8.052;2022-11-21T08:53:37;8.10;99.90
11848;DHT22;5983;49.966;8.052;2022-11-21T08:56:04;8.20;99.90
11848;DHT22;5983;49.966;8.052;2022-11-21T08:58:31;8.30;99.90
11848;DHT22;5983;49.966;8.052;2022-11-21T09:00:58;8.60;99.90
11848;DHT22;5983;49.966;8.052;2022-11-21T09:03:25;9.90;99.90
11848;DHT22;5983;49.966;8.052;2022-11-21T09:05:56;12.20;99.90
11848;DHT22;5983;49.966;8.052;2022-11-21T09:08:23;14.80;99.90
11848;DHT22;5983;49.966;8.052;2022-11-21T09:10:50;17.00;99.90
11848;DHT22;5983;49.966;8.052;2022-11-21T09:13:17;18.70;99.90
11848;DHT22;5983;49.966;8.052;2022-11-21T09:15:44;20.20;97.00
11848;DHT22;5983;49.966;8.052;2022-11-21T09:18:28;21.10;88.50
11848;DHT22;5983;49.966;8.052;2022-11-21T09:20:56;20.90;80.90
11848;DHT22;5983;49.966;8.052;2022-11-21T09:23:23;19.50;82.00
11848;DHT22;5983;49.966;8.052;2022-11-21T09:25:50;18.20;87.90
11848;DHT22;5983;49.966;8.052;2022-11-21T09:28:17;17.10;91.60
11848;DHT22;5983;49.966;8.052;2022-11-21T09:30:44;16.20;92.60
11848;DHT22;5983;49.966;8.052;2022-11-21T09:33:13;15.30;95.10
11848;DHT22;5983;49.966;8.052;2022-11-21T09:35:41;14.70;98.00
11848;DHT22;5983;49.966;8.052;2022-11-21T09:38:10;14.30;99.90
11848;DHT22;5983;49.966;8.052;2022-11-21T09:40:40;13.70;99.90
11848;DHT22;5983;49.966;8.052;2022-11-21T09:43:24;13.90;99.90
11848;DHT22;5983;49.966;8.052;2022-11-21T09:46:08;15.90;99.90
11848;DHT22;5983;49.966;8.052;2022-11-21T09:48:45;18.30;95.90
11848;DHT22;5983;49.966;8.052;2022-11-21T09:51:18;20.80;91.20
11848;DHT22;5983;49.966;8.052;2022-11-21T09:53:54;22.50;80.20
11848;DHT22;5983;49.966;8.052;2022-11-21T09:56:25;24.30;70.30
11848;DHT22;5983;49.966;8.052;2022-11-21T09:59:07;25.70;63.20
11848;DHT22;5983;49.966;8.052;2022-11-21T10:01:45;26.90;57.00
11848;DHT22;5983;49.966;8.052;2022-11-21T10:04:12;28.00;52.50
11848;DHT22;5983;49.966;8.052;2022-11-21T10:06:44;28.00;48.60
11848;DHT22;5983;49.966;8.052;2022-11-21T10:09:29;28.20;48.60
11848;DHT22;5983;49.966;8.052;2022-11-21T10:12:12;29.10;47.90
11848;DHT22;5983;49.966;8.052;2022-11-21T10:15:12;29.90;45.70
11848;DHT22;5983;49.966;8.052;2022-11-21T10:17:56;30.40;44.60
11848;DHT22;5983;49.966;8.052;2022-11-21T10:20:45;30.50;41.90
11848;DHT22;5983;49.966;8.052;2022-11-21T10:23:38;29.50;41.40
11848;DHT22;5983;49.966;8.052;2022-11-21T10:26:35;28.20;41.60
11848;DHT22;5983;49.966;8.052;2022-11-21T10:29:13;26.70;42.50
11848;DHT22;5983;49.966;8.052;2022-11-21T10:31:45;26.20;43.90
11848;DHT22;5983;49.966;8.052;2022-11-21T10:34:16;26.40;43.00
11848;DHT22;5983;49.966;8.052;2022-11-21T10:36:48;27.00;43.30
11848;DHT22;5983;49.966;8.052;2022-11-21T10:39:19;26.50;42.30
11848;DHT22;5983;49.966;8.052;2022-11-21T10:41:57;25.60;43.60
11848;DHT22;5983;49.966;8.052;2022-11-21T10:44:29;25.50;43.90
11848;DHT22;5983;49.966;8.052;2022-11-21T10:47:31;25.80;45.00
11848;DHT22;5983;49.966;8.052;2022-11-21T10:50:11;26.20;43.30
11848;DHT22;5983;49.966;8.052;2022-11-21T10:52:48;26.30;43.30
11848;DHT22;5983;49.966;8.052;2022-11-21T10:55:17;27.00;42.70
11848;DHT22;5983;49.966;8.052;2022-11-21T10:57:46;27.10;41.30
11848;DHT22;5983;49.966;8.052;2022-11-21T11:00:22;27.90;42.10
11848;DHT22;5983;49.966;8.052;2022-11-21T11:03:15;29.20;41.20
11848;DHT22;5983;49.966;8.052;2022-11-21T11:05:53;28.60;39.90
11848;DHT22;5983;49.966;8.052;2022-11-21T11:08:23;29.40;40.60
11848;DHT22;5983;49.966;8.052;2022-11-21T11:11:04;29.60;38.60
11848;DHT22;5983;49.966;8.052;2022-11-21T11:13:47;30.80;38.70
11848;DHT22;5983;49.966;8.052;2022-11-21T11:16:21;31.40;38.10
11848;DHT22;5983;49.966;8.052;2022-11-21T11:18:55;30.30;36.70
11848;DHT22;5983;49.966;8.052;2022-11-21T11:21:25;30.20;37.80
11848;DHT22;5983;49.966;8.052;2022-11-21T11:24:05;30.00;36.20
11848;DHT22;5983;49.966;8.052;2022-11-21T11:26:51;28.50;37.80
11848;DHT22;5983;49.966;8.052;2022-11-21T11:29:24;27.10;38.70
11848;DHT22;5983;49.966;8.052;2022-11-21T11:31:54;26.50;40.20
11848;DHT22;5983;49.966;8.052;2022-11-21T11:34:24;27.00;41.20
11848;DHT22;5983;49.966;8.052;2022-11-21T11:36:55;26.80;39.10
11848;DHT22;5983;49.966;8.052;2022-11-21T11:39:38;27.10;40.10
11848;DHT22;5983;49.966;8.052;2022-11-21T11:45:50;28.60;36.80
11848;DHT22;5983;49.966;8.052;2022-11-21T11:48:49;29.20;36.80
11848;DHT22;5983;49.966;8.052;2022-11-21T11:51:22;29.80;36.00
11848;DHT22;5983;49.966;8.052;2022-11-21T11:53:58;30.00;35.00
11848;DHT22;5983;49.966;8.052;2022-11-21T11:56:32;29.70;34.70
11848;DHT22;5983;49.966;8.052;2022-11-21T11:59:06;29.70;34.90
11848;DHT22;5983;49.966;8.052;2022-11-21T12:01:45;30.10;34.20
11848;DHT22;5983;49.966;8.052;2022-11-21T12:04:18;30.30;33.30
11848;DHT22;5983;49.966;8.052;2022-11-21T12:06:51;30.10;34.00
11848;DHT22;5983;49.966;8.052;2022-11-21T12:09:28;29.90;34.00
11848;DHT22;5983;49.966;8.052;2022-11-21T12:12:07;29.30;35.00
11848;DHT22;5983;49.966;8.052;2022-11-21T12:14:56;28.00;36.40
11848;DHT22;5983;49.966;8.052;2022-11-21T12:17:55;26.40;38.50
11848;DHT22;5983;49.966;8.052;2022-11-21T12:20:36;23.90;40.60
11848;DHT22;5983;49.966;8.052;2022-11-21T12:23:11;22.90;43.10
11848;DHT22;5983;49.966;8.052;2022-11-21T12:25:45;22.40;43.80
11848;DHT22;5983;49.966;8.052;2022-11-21T12:28:23;22.50;44.10
11848;DHT22;5983;49.966;8.052;2022-11-21T12:31:05;23.10;43.90
11848;DHT22;5983;49.966;8.052;2022-11-21T12:33:44;24.20;43.10
11848;DHT22;5983;49.966;8.052;2022-11-21T12:36:24;25.30;41.30
11848;DHT22;5983;49.966;8.052;2022-11-21T12:39:18;26.50;39.40
11848;DHT22;5983;49.966;8.052;2022-11-21T12:42:06;27.00;39.10
11848;DHT22;5983;49.966;8.052;2022-11-21T12:45:07;27.50;39.00
11848;DHT22;5983;49.966;8.052;2022-11-21T12:48:13;27.20;39.70
11848;DHT22;5983;49.966;8.052;2022-11-21T12:51:52;26.50;39.50
11848;DHT22;5983;49.966;8.052;2022-11-21T12:54:55;26.40;39.80
11848;DHT22;5983;49.966;8.052;2022-11-21T12:57:36;27.30;39.20
11848;DHT22;5983;49.966;8.052;2022-11-21T13:00:13;26.90;39.50
11848;DHT22;5983;49.966;8.052;2022-11-21T13:03:02;26.00;40.40
11848;DHT22;5983;49.966;8.052;2022-11-21T13:05:45;24.60;41.20
11848;DHT22;5983;49.966;8.052;2022-11-21T13:08:17;22.70;43.50
11848;DHT22;5983;49.966;8.052;2022-11-21T13:10:52;21.50;45.30
11848;DHT22;5983;49.966;8.052;2022-11-21T13:13:46;20.40;47.70
11848;DHT22;5983;49.966;8.052;2022-11-21T13:16:20;18.90;49.80
11848;DHT22;5983;49.966;8.052;2022-11-21T13:19:10;17.90;51.90
11848;DHT22;5983;49.966;8.052;2022-11-21T13:21:44;17.00;53.60
11848;DHT22;5983;49.966;8.052;2022-11-21T13:24:55;16.30;55.50
11848;DHT22;5983;49.966;8.052;2022-11-21T13:27:31;15.60;57.40
11848;DHT22;5983;49.966;8.052;2022-11-21T13:30:21;15.30;59.00
11848;DHT22;5983;49.966;8.052;2022-11-21T13:32:49;15.30;60.00
11848;DHT22;5983;49.966;8.052;2022-11-21T13:39:19;15.10;61.20
11848;DHT22;5983;49.966;8.052;2022-11-21T13:42:09;15.00;62.10
11848;DHT22;5983;49.966;8.052;2022-11-21T13:44:55;14.80;63.00
11848;DHT22;5983;49.966;8.052;2022-11-21T13:47:54;14.50;63.80
11848;DHT22;5983;49.966;8.052;2022-11-21T13:51:06;14.20;65.30
11848;DHT22;5983;49.966;8.052;2022-11-21T13:57:24;13.90;69.70
11848;DHT22;5983;49.966;8.052;2022-11-21T14:00:23;14.20;69.70
11848;DHT22;5983;49.966;8.052;2022-11-21T14:03:27;14.30;70.00
11848;DHT22;5983;49.966;8.052;2022-11-21T14:09:25;14.10;71.10
11848;DHT22;5983;49.966;8.052;2022-11-21T14:11:58;13.70;72.70
11848;DHT22;5983;49.966;8.052;2022-11-21T14:14:34;13.40;74.30
11848;DHT22;5983;49.966;8.052;2022-11-21T14:17:19;13.10;78.20
11848;DHT22;5983;49.966;8.052;2022-11-21T14:19:56;12.70;82.00
11848;DHT22;5983;49.966;8.052;2022-11-21T14:22:26;12.30;86.80
11848;DHT22;5983;49.966;8.052;2022-11-21T14:24:57;12.10;90.80
11848;DHT22;5983;49.966;8.052;2022-11-21T14:31:11;11.80;94.80
11848;DHT22;5983;49.966;8.052;2022-11-21T14:33:40;11.70;97.90
11848;DHT22;5983;49.966;8.052;2022-11-21T14:36:10;11.60;99.80
11848;DHT22;5983;49.966;8.052;2022-11-21T14:38:41;11.40;99.90
11848;DHT22;5983;49.966;8.052;2022-11-21T14:41:25;11.30;99.90
11848;DHT22;5983;49.966;8.052;2022-11-21T14:44:02;11.20;99.90
11848;DHT22;5983;49.966;8.052;2022-11-21T14:46:34;11.10;99.90
11848;DHT22;5983;49.966;8.052;2022-11-21T14:56:26;10.60;99.90
11848;DHT22;5983;49.966;8.052;2022-11-21T14:58:57;10.40;99.90
11848;DHT22;5983;49.966;8.052;2022-11-21T15:01:28;10.40;99.90
11848;DHT22;5983;49.966;8.052;2022-11-21T15:04:00;10.20;99.90
11848;DHT22;5983;49.966;8.052;2022-11-21T15:06:31;10.10;99.90
11848;DHT22;5983;49.966;8.052;2022-11-21T15:09:10;10.00;99.90
11848;DHT22;5983;49.966;8.052;2022-11-21T15:11:42;9.90;99.90
11848;DHT22;5983;49.966;8.052;2022-11-21T15:14:19;9.80;99.90
11848;DHT22;5983;49.966;8.052;2022-11-21T15:16:52;9.70;99.90
11848;DHT22;5983;49.966;8.052;2022-11-21T15:19:24;9.60;99.90
11848;DHT22;5983;49.966;8.052;2022-11-21T15:21:55;9.60;99.90
11848;DHT22;5983;49.966;8.052;2022-11-21T15:24:33;9.50;99.90
11848;DHT22;5983;49.966;8.052;2022-11-21T15:27:31;9.50;99.90
11848;DHT22;5983;49.966;8.052;2022-11-21T15:33:05;9.20;99.90
11848;DHT22;5983;49.966;8.052;2022-11-21T15:35:49;9.10;99.90
11848;DHT22;5983;49.966;8.052;2022-11-21T15:38:21;9.00;99.90
11848;DHT22;5983;49.966;8.052;2022-11-21T15:41:05;8.90;99.90
11848;DHT22;5983;49.966;8.052;2022-11-21T15:43:51;8.80;99.90
11848;DHT22;5983;49.966;8.052;2022-11-21T15:46:20;8.70;99.90
11848;DHT22;5983;49.966;8.052;2022-11-21T15:48:50;8.60;99.90
11848;DHT22;5983;49.966;8.052;2022-11-21T15:51:21;8.60;99.90
11848;DHT22;5983;49.966;8.052;2022-11-21T15:53:50;8.60;99.90
11848;DHT22;5983;49.966;8.052;2022-11-21T15:56:18;8.60;99.90
11848;DHT22;5983;49.966;8.052;2022-11-21T15:58:47;8.50;99.90
11848;DHT22;5983;49.966;8.052;2022-11-21T16:01:15;8.40;99.90
11848;DHT22;5983;49.966;8.052;2022-11-21T16:03:45;8.40;99.90
11848;DHT22;5983;49.966;8.052;2022-11-21T16:06:14;8.30;99.90
11848;DHT22;5983;49.966;8.052;2022-11-21T16:08:43;8.20;99.90
11848;DHT22;5983;49.966;8.052;2022-11-21T16:11:15;8.10;99.90
11848;DHT22;5983;49.966;8.052;2022-11-21T16:13:49;8.00;99.90
11848;DHT22;5983;49.966;8.052;2022-11-21T16:16:18;7.90;99.90
11848;DHT22;5983;49.966;8.052;2022-11-21T16:18:46;7.90;99.90
11848;DHT22;5983;49.966;8.052;2022-11-21T16:21:13;7.80;99.90
11848;DHT22;5983;49.966;8.052;2022-11-21T16:23:40;7.80;99.90
11848;DHT22;5983;49.966;8.052;2022-11-21T16:26:10;7.70;99.90
11848;DHT22;5983;49.966;8.052;2022-11-21T16:28:38;7.60;99.90
11848;DHT22;5983;49.966;8.052;2022-11-21T16:31:05;7.50;99.90
11848;DHT22;5983;49.966;8.052;2022-11-21T16:33:33;7.40;99.90
11848;DHT22;5983;49.966;8.052;2022-11-21T16:36:00;7.30;99.90
11848;DHT22;5983;49.966;8.052;2022-11-21T16:38:28;7.30;99.90
11848;DHT22;5983;49.966;8.052;2022-11-21T16:40:57;7.20;99.90
11848;DHT22;5983;49.966;8.052;2022-11-21T16:43:27;7.20;99.90
11848;DHT22;5983;49.966;8.052;2022-11-21T16:45:55;7.10;99.90
11848;DHT22;5983;49.966;8.052;2022-11-21T16:48:31;7.10;99.90
11848;DHT22;5983;49.966;8.052;2022-11-21T16:51:08;7.00;99.90
11848;DHT22;5983;49.966;8.052;2022-11-21T16:53:36;6.90;99.90
11848;DHT22;5983;49.966;8.052;2022-11-21T16:56:04;6.90;99.90
11848;DHT22;5983;49.966;8.052;2022-11-21T16:58:34;6.80;99.90